Time;durP1;ratioP1;P1;durP2;ratioP2;P2;SDS_P1;SDS_P2;PMS_P1;PMS_P2;Temp;Humidity;BMP_temperature;BMP_pressure;BME280_temperature;BME280_humidity;BME280_pressure;Samples;Min_cycle;Max_cycle;Signal;HPM_P1;HPM_P2
2022/10/27 00:00:52;;;;;;;7.55;4.22;;;9.70;99.90;;;9.07;100.00;98058.97;4966849;28;20826;-75
2022/10/27 00:03:19;;;;;;;9.05;3.65;;;9.70;99.90;;;9.12;100.00;98059.69;4965926;28;20062;-76
2022/10/27 00:05:47;;;;;;;6.55;3.97;;;9.70;99.90;;;9.13;100.00;98063.97;4963255;28;20501;-75
2022/10/27 00:08:20;;;;;;;7.20;3.30;;;9.70;99.90;;;9.16;100.00;98063.03;4967311;28;20055;-75
2022/10/27 00:10:59;;;;;;;13.40;6.55;;;9.80;99.90;;;9.08;100.00;98065.84;4980392;28;20038;-75
2022/10/27 00:13:28;;;;;;;6.18;3.58;;;9.80;99.90;;;9.07;100.00;98065.88;4966849;28;20061;-72
2022/10/27 00:16:06;;;;;;;7.05;4.78;;;9.70;99.90;;;9.06;100.00;98062.47;4962165;28;20058;-74
2022/10/27 00:18:34;;;;;;;20.08;7.13;;;9.60;99.90;;;8.81;100.00;98053.69;4959831;28;20054;-73
2022/10/27 00:21:07;;;;;;;11.57;3.95;;;9.60;99.90;;;8.79;100.00;98049.41;4965981;28;20061;-73
2022/10/27 00:23:35;;;;;;;7.63;3.53;;;9.50;99.90;;;8.95;100.00;98054.16;4966133;28;20058;-72
2022/10/27 00:26:02;;;;;;;6.55;3.65;;;9.50;99.90;;;9.02;100.00;98050.50;4967542;28;20050;-73
2022/10/27 00:28:29;;;;;;;21.33;7.90;;;9.50;99.90;;;8.95;100.00;98046.38;4962361;28;20062;-73
2022/10/27 00:31:15;;;;;;;4.45;3.05;;;9.60;99.90;;;9.11;100.00;98039.03;4982574;28;20465;-73
2022/10/27 00:33:44;;;;;;;18.92;6.95;;;9.60;99.90;;;8.80;100.00;98034.69;4978551;28;20050;-73
2022/10/27 00:36:15;;;;;;;19.40;7.28;;;9.50;99.90;;;8.71;100.00;98038.44;4980463;28;20069;-73
2022/10/27 00:38:42;;;;;;;12.43;5.38;;;9.60;99.90;;;8.70;100.00;98039.28;4966443;28;20051;-73
2022/10/27 00:41:37;;;;;;;8.00;5.15;;;9.50;99.90;;;8.69;100.00;98041.91;4972767;28;20050;-73
2022/10/27 00:44:30;;;;;;;4.82;3.13;;;9.50;99.90;;;8.82;100.00;98045.88;4978454;28;20525;-73
2022/10/27 00:47:05;;;;;;;12.27;5.82;;;9.40;99.90;;;8.70;100.00;98047.06;4985156;28;20136;-75
2022/10/27 00:49:46;;;;;;;16.77;8.95;;;9.40;99.90;;;8.57;100.00;98038.78;4981911;28;20043;-73
2022/10/27 00:52:37;;;;;;;23.75;8.15;;;9.40;99.90;;;8.67;100.00;98034.22;4971349;28;20069;-75
2022/10/27 00:55:11;;;;;;;14.90;9.98;;;9.30;99.90;;;8.74;100.00;98037.47;4985264;28;20500;-76
2022/10/27 00:57:41;;;;;;;70.82;13.80;;;9.40;99.90;;;8.48;100.00;98043.34;4967885;28;20058;-75
2022/10/27 01:00:09;;;;;;;151.00;29.35;;;9.40;99.90;;;8.31;100.00;98042.03;4965766;28;20054;-76
2022/10/27 01:02:37;;;;;;;14.13;8.07;;;9.30;99.90;;;8.50;100.00;98041.56;4964368;28;20412;-75
2022/10/27 01:05:22;;;;;;;9.75;6.00;;;9.30;99.90;;;8.54;100.00;98051.81;4969003;28;20050;-76
2022/10/27 01:07:54;;;;;;;10.13;4.45;;;9.30;99.90;;;8.62;100.00;98042.97;4964107;28;20058;-76
2022/10/27 01:10:22;;;;;;;113.95;15.40;;;9.30;99.90;;;8.29;100.00;98042.97;4965802;28;20104;-75
2022/10/27 01:12:49;;;;;;;39.85;6.18;;;9.30;99.90;;;8.27;100.00;98042.16;4964604;28;20429;-76
2022/10/27 01:15:17;;;;;;;36.17;6.85;;;9.20;99.90;;;8.26;100.00;98035.31;4968209;28;20065;-75
2022/10/27 01:18:09;;;;;;;9.65;4.40;;;9.10;99.90;;;8.35;100.00;98043.66;4966292;28;20116;-74
2022/10/27 01:21:20;;;;;;;11.20;5.22;;;9.00;99.90;;;8.39;100.00;98031.47;4981657;28;20054;-75
2022/10/27 01:24:32;;;;;;;31.40;8.90;;;9.10;99.90;;;8.16;100.00;98039.84;4975365;28;20081;-75
2022/10/27 01:27:03;;;;;;;16.27;5.65;;;;;;;8.12;100.00;98046.84;4980229;28;20158;-75
2022/10/27 01:29:48;;;;;;;29.23;9.80;;;;;;;8.01;100.00;98058.34;4986110;28;20049;-75
2022/10/27 01:32:31;;;;;;;20.27;6.75;;;;;;;8.14;100.00;98054.53;4970284;28;20493;-75
2022/10/27 01:34:58;;;;;;;;;;;;;;;8.15;100.00;98054.50;4968743;28;20058;-75
2022/10/27 01:37:51;;;;;;;11.07;4.82;;;;;;;8.21;100.00;98063.00;4964820;28;19937;-74
2022/10/27 01:40:27;;;;;;;9.63;4.45;;;;;;;8.16;100.00;98057.94;4983525;28;20043;-74
2022/10/27 01:43:00;;;;;;;37.10;7.05;;;;;;;8.24;100.00;98060.34;4961046;28;20054;-75
2022/10/27 01:45:32;;;;;;;22.30;5.30;;;;;;;8.35;100.00;98055.75;4979864;28;20051;-75
2022/10/27 01:48:01;;;;;;;8.50;4.57;;;;;;;8.28;100.00;98047.28;4970284;28;20059;-76
2022/10/27 01:50:38;;;;;;;98.22;10.63;;;;;;;8.08;100.00;98041.78;4970553;28;20046;-75
2022/10/27 01:53:28;;;;;;;244.45;21.27;;;8.90;99.90;;;7.82;100.00;98040.66;4956854;28;20059;-75
2022/10/27 01:56:03;;;;;;;11.95;4.60;;;8.90;99.90;;;8.05;100.00;98044.41;4979563;28;20066;-74
2022/10/27 01:59:25;;;;;;;13.43;3.92;;;8.80;99.90;;;8.09;100.00;98040.88;4972941;28;20424;-74
2022/10/27 02:02:25;;;;;;;7.68;3.33;;;8.70;99.90;;;8.22;100.00;98038.84;4975688;28;20505;-74
2022/10/27 02:05:20;;;;;;;5.90;3.00;;;8.80;99.90;;;8.25;100.00;98039.59;4965985;28;20468;-75
2022/10/27 02:08:08;;;;;;;11.00;3.28;;;8.80;99.90;;;8.28;100.00;98039.53;4980505;28;20390;-75
2022/10/27 02:10:45;;;;;;;9.75;5.22;;;;;;;8.03;100.00;98039.31;4981042;28;20130;-74
2022/10/27 02:13:12;;;;;;;12.02;5.20;;;8.80;99.90;;;8.07;100.00;98040.06;4982519;28;20077;-74
2022/10/27 02:15:45;;;;;;;10.50;3.58;;;8.70;99.90;;;8.15;100.00;98040.75;4966801;28;20112;-75
2022/10/27 02:18:24;;;;;;;16.45;4.13;;;8.70;99.90;;;8.10;100.00;98038.25;4970099;28;20055;-74
2022/10/27 02:20:55;;;;;;;12.43;5.53;;;8.80;99.90;;;7.93;100.00;98041.25;4968518;28;20054;-75
2022/10/27 02:23:23;;;;;;;24.40;7.90;;;8.70;99.90;;;7.77;100.00;98036.50;4982742;28;20070;-74
2022/10/27 02:26:26;;;;;;;24.85;6.60;;;8.60;99.90;;;7.82;100.00;98024.31;4971326;28;20066;-75
2022/10/27 02:29:05;;;;;;;24.77;5.95;;;8.60;99.90;;;7.65;100.00;98030.75;4966819;28;20520;-74
2022/10/27 02:31:46;;;;;;;76.35;11.13;;;8.50;99.90;;;7.55;100.00;98031.84;4977150;28;20046;-75
2022/10/27 02:34:15;;;;;;;62.25;10.93;;;8.50;99.90;;;7.43;100.00;98038.13;4953871;28;20058;-76
2022/10/27 02:36:42;;;;;;;33.92;9.20;;;;;;;7.39;100.00;98038.22;4971807;28;20673;-75
2022/10/27 02:39:09;;;;;;;16.55;7.10;;;8.40;99.90;;;7.50;100.00;98039.72;4966006;28;20059;-74
2022/10/27 02:41:36;;;;;;;19.00;6.07;;;8.40;99.90;;;7.58;100.00;98036.94;4969954;28;20054;-75
2022/10/27 02:44:03;;;;;;;26.55;8.20;;;8.30;99.90;;;7.58;100.00;98043.84;4968694;28;20050;-74
2022/10/27 02:46:30;;;;;;;10.77;5.05;;;8.30;99.90;;;7.64;100.00;98041.09;4969276;28;20127;-75
2022/10/27 02:48:57;;;;;;;10.02;4.28;;;8.30;99.90;;;7.73;100.00;98041.75;4967502;28;20074;-74
2022/10/27 02:51:24;;;;;;;15.18;7.10;;;8.30;99.90;;;7.64;100.00;98036.81;4967682;28;20528;-75
2022/10/27 02:53:51;;;;;;;19.73;7.35;;;8.40;99.90;;;7.61;100.00;98042.03;4968826;28;20054;-74
2022/10/27 02:56:18;;;;;;;33.58;6.15;;;8.30;99.90;;;7.60;100.00;98037.75;4969542;28;20055;-73
2022/10/27 02:58:44;;;;;;;9.50;4.35;;;8.30;99.90;;;7.65;100.00;98033.31;4975091;28;20050;-74
2022/10/27 03:01:11;;;;;;;8.70;3.78;;;8.20;99.90;;;7.73;100.00;98033.13;4985789;28;20542;-75
2022/10/27 03:03:38;;;;;;;12.27;3.47;;;8.30;99.90;;;7.71;100.00;98024.59;4965924;28;20042;-75
2022/10/27 03:06:05;;;;;;;11.52;3.83;;;8.30;99.90;;;7.84;100.00;98019.97;4967822;28;20058;-74
2022/10/27 03:08:32;;;;;;;9.32;3.50;;;8.40;99.90;;;7.96;100.00;98014.50;4970173;28;20047;-75
2022/10/27 03:10:59;;;;;;;16.10;4.88;;;8.40;99.90;;;7.79;100.00;98014.91;4968634;28;20051;-75
2022/10/27 03:13:26;;;;;;;9.38;3.60;;;8.50;99.90;;;7.83;100.00;98002.78;4968584;28;20053;-75
2022/10/27 03:15:53;;;;;;;10.25;3.88;;;8.50;99.90;;;7.88;100.00;97993.16;4968771;28;20055;-76
2022/10/27 03:18:20;;;;;;;9.88;4.00;;;8.50;99.90;;;7.70;100.00;97992.72;4981756;28;20106;-75
2022/10/27 03:20:47;;;;;;;22.98;8.52;;;8.40;99.90;;;7.54;100.00;97992.25;4969791;28;20049;-75
2022/10/27 03:23:14;;;;;;;9.98;4.28;;;8.40;99.90;;;7.74;100.00;97996.94;4964347;28;20046;-74
2022/10/27 03:25:43;;;;;;;10.88;3.60;;;;;;;7.82;100.00;97993.31;4971042;28;20054;-74
2022/10/27 03:28:14;;;;;;;;;;;8.40;99.90;;;7.84;100.00;97989.78;4973643;28;20572;-74
2022/10/27 03:30:41;;;;;;;6.90;4.15;;;8.40;99.90;;;7.86;100.00;97988.03;4966556;28;19934;-75
2022/10/27 03:33:08;;;;;;;13.00;5.35;;;8.40;99.90;;;7.78;100.00;97984.78;4966644;28;20047;-75
2022/10/27 03:35:34;;;;;;;16.35;7.82;;;8.40;99.90;;;7.62;100.00;97984.31;4967124;28;20505;-74
2022/10/27 03:38:02;;;;;;;19.13;7.82;;;8.40;99.90;;;7.44;100.00;97984.75;4967842;28;20050;-75
2022/10/27 03:40:30;;;;;;;9.23;5.07;;;;;;;7.54;100.00;97978.47;4970266;28;20106;-75
2022/10/27 03:42:57;;;;;;;12.55;6.63;;;8.30;99.90;;;7.50;100.00;97976.84;4963797;28;20074;-75
2022/10/27 03:45:26;;;;;;;9.77;6.07;;;8.30;99.90;;;7.37;100.00;97984.06;4969996;28;20082;-75
2022/10/27 03:48:09;;;;;;;20.35;7.25;;;8.20;99.90;;;7.31;100.00;97981.59;4966022;28;20055;-75
2022/10/27 03:50:35;;;;;;;14.45;6.43;;;8.20;99.90;;;7.24;100.00;97987.81;4967798;28;20063;-74
2022/10/27 03:53:03;;;;;;;15.27;6.50;;;8.10;99.90;;;7.07;100.00;97980.41;4968905;28;20055;-74
2022/10/27 03:55:31;;;;;;;10.10;4.82;;;8.10;99.90;;;7.24;100.00;97982.63;4967884;28;20047;-74
2022/10/27 03:57:59;;;;;;;8.85;4.45;;;8.00;99.90;;;7.28;100.00;97984.25;4981749;28;20054;-75
2022/10/27 04:00:27;;;;;;;7.90;3.70;;;8.00;99.90;;;7.19;100.00;97979.31;4970722;28;20062;-74
2022/10/27 04:02:54;;;;;;;11.07;3.90;;;8.00;99.90;;;7.13;100.00;97975.13;4963743;28;20047;-75
2022/10/27 04:05:22;;;;;;;10.70;4.22;;;7.90;99.90;;;7.11;100.00;97980.31;4967344;28;20054;-74
2022/10/27 04:07:49;;;;;;;14.98;3.42;;;7.90;99.90;;;7.22;100.00;97985.25;4967108;28;20501;-75
2022/10/27 04:10:17;;;;;;;7.82;3.70;;;7.90;99.90;;;7.23;100.00;97988.66;4968086;28;20453;-74
2022/10/27 04:12:51;;;;;;;9.68;4.50;;;8.00;99.90;;;7.17;100.00;97978.50;4967120;28;20055;-74
2022/10/27 04:15:20;;;;;;;10.75;5.53;;;7.90;99.90;;;7.05;100.00;97977.03;4979560;28;20579;-74
2022/10/27 04:17:47;;;;;;;5.10;2.83;;;7.90;99.90;;;7.19;100.00;97980.16;4965239;28;20051;-75
2022/10/27 04:20:14;;;;;;;8.68;3.17;;;7.90;99.90;;;7.17;100.00;97986.25;4969571;28;20050;-74
2022/10/27 04:22:41;;;;;;;5.50;2.88;;;7.90;99.90;;;7.18;100.00;97986.19;4968119;28;20595;-74
2022/10/27 04:25:08;;;;;;;6.18;3.35;;;7.90;99.90;;;7.20;100.00;97979.25;4967930;28;20779;-75
2022/10/27 04:27:35;;;;;;;5.43;3.22;;;7.90;99.90;;;7.36;100.00;97976.34;4970402;28;20043;-75
2022/10/27 04:30:02;;;;;;;5.45;3.10;;;8.00;99.90;;;7.28;100.00;97977.38;4973973;28;20099;-76
2022/10/27 04:32:29;;;;;;;7.97;5.05;;;8.00;99.90;;;7.12;100.00;97976.03;4982189;28;21898;-75
2022/10/27 04:34:56;;;;;;;10.35;4.75;;;;;;;7.01;100.00;97981.41;4966147;28;20154;-74
2022/10/27 04:37:23;;;;;;;9.18;4.03;;;8.00;99.90;;;6.97;100.00;97976.34;4973104;28;20153;-75
2022/10/27 04:39:50;;;;;;;9.63;4.15;;;8.00;99.90;;;7.05;100.00;97977.88;4982810;28;20078;-75
2022/10/27 04:42:17;;;;;;;7.10;3.20;;;8.00;99.90;;;7.09;100.00;97986.38;4970020;28;20073;-74
2022/10/27 04:44:44;;;;;;;6.88;3.50;;;8.00;99.90;;;6.98;100.00;97980.63;4972549;28;20414;-75
2022/10/27 04:47:11;;;;;;;3.63;2.65;;;8.00;99.90;;;7.15;100.00;97977.69;4971714;28;20078;-75
2022/10/27 04:49:37;;;;;;;6.68;3.47;;;8.00;99.90;;;7.15;100.00;97981.09;4970220;28;20066;-75
2022/10/27 04:52:04;;;;;;;5.72;3.45;;;8.00;99.90;;;7.18;100.00;97972.44;4970526;28;20059;-75
2022/10/27 04:54:31;;;;;;;8.75;3.78;;;8.00;99.90;;;7.23;100.00;97978.34;4970635;28;20101;-74
2022/10/27 04:56:58;;;;;;;6.35;3.13;;;8.00;99.90;;;7.12;100.00;97976.03;4971677;28;20058;-75
2022/10/27 04:59:25;;;;;;;12.55;4.80;;;8.00;99.90;;;7.11;100.00;97963.97;4980450;28;20492;-75
2022/10/27 05:01:52;;;;;;;9.10;4.70;;;8.10;99.90;;;7.12;100.00;97961.38;4972679;28;20062;-75
2022/10/27 05:04:19;;;;;;;13.93;4.30;;;8.00;99.90;;;7.26;100.00;97965.38;4969271;28;20046;-74
2022/10/27 05:06:46;;;;;;;11.95;6.28;;;8.00;99.90;;;6.89;100.00;97961.03;4969764;28;20047;-74
2022/10/27 05:09:13;;;;;;;11.52;7.72;;;8.10;99.90;;;7.04;100.00;97960.69;4975522;28;20058;-74
2022/10/27 05:11:40;;;;;;;13.45;7.15;;;8.00;99.90;;;7.21;100.00;97957.75;4972607;28;20074;-75
2022/10/27 05:14:06;;;;;;;11.23;6.97;;;8.00;99.90;;;7.16;100.00;97951.84;4972538;28;20066;-74
2022/10/27 05:16:33;;;;;;;7.70;4.90;;;8.00;99.90;;;7.32;100.00;97948.00;4970630;28;20401;-73
2022/10/27 05:19:00;;;;;;;9.25;5.22;;;8.10;99.90;;;7.16;100.00;97949.25;4971485;28;20074;-75
2022/10/27 05:21:27;;;;;;;9.63;5.40;;;8.00;99.90;;;7.04;100.00;97945.19;4971869;28;20384;-74
2022/10/27 05:23:54;;;;;;;7.25;3.65;;;8.00;99.90;;;7.09;100.00;97947.66;4967474;28;20130;-75
2022/10/27 05:26:21;;;;;;;10.90;4.80;;;8.00;99.90;;;7.13;100.00;97946.72;4968846;28;20461;-75
2022/10/27 05:28:48;;;;;;;12.50;5.63;;;8.00;99.90;;;7.27;100.00;97939.50;4968093;28;20062;-75
2022/10/27 05:31:15;;;;;;;13.68;6.88;;;8.00;99.90;;;7.12;100.00;97942.47;4970105;28;20055;-74
2022/10/27 05:33:42;;;;;;;8.98;4.90;;;8.00;99.90;;;7.23;100.00;97944.78;4967032;28;20063;-74
2022/10/27 05:36:09;;;;;;;11.63;5.10;;;8.00;99.90;;;7.40;100.00;97947.81;4968887;28;20055;-74
2022/10/27 05:38:37;;;;;;;11.00;5.50;;;8.00;99.90;;;7.48;100.00;97942.47;4973002;28;20055;-74
2022/10/27 05:41:04;;;;;;;10.98;5.93;;;8.00;99.90;;;7.47;100.00;97943.34;4989239;28;20501;-74
2022/10/27 05:43:30;;;;;;;10.32;5.47;;;8.10;99.90;;;7.47;100.00;97945.94;4970918;28;20054;-74
2022/10/27 05:46:04;;;;;;;12.85;7.07;;;8.10;99.90;;;7.40;100.00;97945.22;4970809;28;20424;-74
2022/10/27 05:48:31;;;;;;;14.30;6.13;;;8.10;99.90;;;7.45;100.00;97929.63;4970120;28;20055;-75
2022/10/27 05:50:58;;;;;;;10.40;5.15;;;8.10;99.90;;;7.54;100.00;97929.41;4968255;28;20098;-74
2022/10/27 05:53:25;;;;;;;10.95;5.75;;;8.10;99.90;;;7.50;100.00;97931.22;4965513;28;20070;-75
2022/10/27 05:55:53;;;;;;;12.13;5.57;;;8.10;99.90;;;7.41;100.00;97925.41;4969418;28;20063;-74
2022/10/27 05:58:20;;;;;;;10.20;4.80;;;8.10;99.90;;;7.39;100.00;97928.06;4969081;28;20054;-74
2022/10/27 06:00:48;;;;;;;7.80;4.78;;;8.10;99.90;;;7.46;100.00;97927.00;4972165;28;20480;-75
2022/10/27 06:03:23;;;;;;;10.32;5.32;;;8.10;99.90;;;7.42;100.00;97927.97;4968340;28;20046;-75
2022/10/27 06:05:51;;;;;;;7.68;3.95;;;8.00;99.90;;;7.43;100.00;97934.81;4977628;28;20051;-74
2022/10/27 06:08:19;;;;;;;8.63;3.90;;;8.10;99.90;;;7.50;100.00;97928.66;4968815;28;20468;-74
2022/10/27 06:10:46;;;;;;;11.40;4.32;;;8.10;99.90;;;7.56;100.00;97927.63;4970396;28;20053;-74
2022/10/27 06:13:13;;;;;;;5.60;3.72;;;8.20;99.90;;;7.47;100.00;97933.03;4968080;28;20769;-75
2022/10/27 06:15:41;;;;;;;9.57;4.03;;;8.10;99.90;;;7.61;100.00;97938.69;4970145;28;20054;-75
2022/10/27 06:18:12;;;;;;;9.63;3.97;;;8.20;99.90;;;7.65;100.00;97935.16;4981936;28;20117;-74
2022/10/27 06:20:40;;;;;;;11.27;3.70;;;8.20;99.90;;;7.63;100.00;97936.91;4971361;28;20043;-75
2022/10/27 06:23:07;;;;;;;8.60;4.30;;;8.20;99.90;;;7.65;100.00;97936.88;4965707;28;20102;-74
2022/10/27 06:25:34;;;;;;;5.95;3.40;;;8.30;99.90;;;7.67;100.00;97943.72;4969159;28;20428;-75
2022/10/27 06:28:01;;;;;;;6.22;3.30;;;8.30;99.90;;;7.76;100.00;97940.06;4982884;28;20074;-74
2022/10/27 06:30:28;;;;;;;6.25;3.38;;;8.30;99.90;;;7.77;100.00;97949.50;4970856;28;20061;-74
2022/10/27 06:32:55;;;;;;;7.57;3.72;;;8.40;99.90;;;7.69;100.00;97954.84;4981303;28;20461;-74
2022/10/27 06:35:23;;;;;;;13.32;4.22;;;8.30;99.90;;;7.60;100.00;97951.66;4979838;28;20084;-75
2022/10/27 06:37:50;;;;;;;6.72;4.00;;;8.40;99.90;;;7.59;100.00;97957.69;4968378;28;20058;-74
2022/10/27 06:40:19;;;;;;;7.93;3.25;;;8.30;99.90;;;7.52;100.00;97960.44;4967395;28;20153;-74
2022/10/27 06:42:48;;;;;;;6.88;2.97;;;8.30;99.90;;;7.56;100.00;97966.38;4964427;28;20058;-74
2022/10/27 06:45:33;;;;;;;9.23;4.40;;;8.30;99.90;;;7.56;100.00;97968.97;4981704;28;20046;-74
2022/10/27 06:48:02;;;;;;;12.02;3.63;;;8.30;99.90;;;7.70;100.00;97972.03;4966150;28;20932;-74
2022/10/27 06:50:29;;;;;;;6.88;3.15;;;8.30;99.90;;;7.97;100.00;97975.66;4965811;28;20062;-75
2022/10/27 06:52:57;;;;;;;6.13;2.80;;;8.50;99.90;;;8.17;100.00;97975.16;4964627;28;20138;-75
2022/10/27 06:55:24;;;;;;;6.50;2.47;;;8.70;99.90;;;8.23;100.00;97987.06;4969420;28;20417;-75
2022/10/27 06:57:51;;;;;;;6.68;2.70;;;8.90;99.90;;;8.05;100.00;97979.78;4983906;28;20172;-74
2022/10/27 07:00:21;;;;;;;6.53;2.42;;;8.90;99.90;;;8.04;100.00;97986.72;4978522;28;20460;-74
2022/10/27 07:02:48;;;;;;;6.25;2.95;;;8.80;99.90;;;8.07;100.00;97983.19;4968338;28;20051;-72
2022/10/27 07:05:16;;;;;;;8.15;2.42;;;8.80;99.90;;;8.22;100.00;97987.97;4964704;28;20042;-73
2022/10/27 07:07:48;;;;;;;4.72;1.90;;;8.90;99.90;;;8.38;100.00;97988.41;4977333;28;20574;-73
2022/10/27 07:10:17;;;;;;;3.67;1.63;;;9.00;99.90;;;8.42;100.00;97987.47;4967818;28;20062;-73
2022/10/27 07:12:56;;;;;;;8.90;2.08;;;9.10;99.90;;;8.44;100.00;97988.28;4964950;28;20050;-73
2022/10/27 07:15:26;;;;;;;8.00;2.30;;;9.20;99.90;;;8.61;100.00;97985.22;4962926;28;20504;-73
2022/10/27 07:18:01;;;;;;;6.22;2.70;;;9.30;99.90;;;8.69;100.00;97982.41;4963810;28;20059;-74
2022/10/27 07:20:32;;;;;;;7.30;2.20;;;9.40;99.90;;;8.71;100.00;97981.47;4977412;28;20046;-73
2022/10/27 07:23:00;;;;;;;7.40;2.28;;;9.50;99.90;;;8.78;100.00;97980.41;4965799;28;20101;-73
2022/10/27 07:25:28;;;;;;;10.80;3.13;;;9.50;99.90;;;8.85;100.00;97981.09;4981060;28;20050;-73
2022/10/27 07:27:57;;;;;;;6.28;1.80;;;9.60;99.90;;;8.97;100.00;97992.81;4977879;28;20047;-72
2022/10/27 07:30:43;;;;;;;8.98;2.78;;;9.60;99.90;;;9.00;100.00;98001.31;4968089;28;20054;-72
2022/10/27 07:33:11;;;;;;;7.15;3.15;;;9.70;99.90;;;8.98;100.00;97997.09;4964701;28;20443;-72
2022/10/27 07:35:38;;;;;;;35.28;10.35;;;9.80;99.90;;;8.60;100.00;98001.63;4965025;28;20047;-73
2022/10/27 07:38:06;;;;;;;22.52;8.43;;;9.80;99.90;;;8.73;100.00;97996.94;4968422;28;20046;-73
2022/10/27 07:40:34;;;;;;;15.20;8.52;;;9.70;99.90;;;8.83;100.00;98000.16;4965701;28;20488;-74
2022/10/27 07:43:01;;;;;;;30.23;18.73;;;9.80;99.90;;;8.97;100.00;98004.00;4964104;28;20247;-72
2022/10/27 07:45:35;;;;;;;;;;;9.80;99.90;;;9.10;100.00;97999.34;4983584;28;20505;-72
2022/10/27 07:48:02;;;;;;;23.35;9.90;;;9.90;99.90;;;9.37;100.00;97995.06;4962622;28;19930;-73
2022/10/27 07:50:32;;;;;;;16.45;9.27;;;10.00;99.90;;;9.86;100.00;98002.16;4964099;28;20058;-74
2022/10/27 07:53:00;;;;;;;20.25;9.68;;;10.20;99.90;;;10.41;100.00;97988.16;4981244;28;20149;-74
2022/10/27 07:55:31;;;;;;;10.70;6.07;;;10.50;99.90;;;10.71;100.00;97987.13;4967084;28;20054;-72
2022/10/27 07:58:14;;;;;;;8.02;3.80;;;10.80;99.90;;;10.75;100.00;97989.56;4980040;28;20078;-73
2022/10/27 08:00:46;;;;;;;4.75;2.30;;;11.00;99.90;;;11.01;100.00;97985.13;4965640;28;20118;-73
2022/10/27 08:03:20;;;;;;;8.60;2.50;;;11.20;99.90;;;11.12;100.00;97982.97;4965689;28;20538;-72
2022/10/27 08:05:48;;;;;;;8.73;2.53;;;11.40;99.90;;;11.20;100.00;97982.69;4968017;28;20424;-73
2022/10/27 08:08:15;;;;;;;5.70;2.80;;;11.60;99.90;;;11.26;100.00;97991.09;4982301;28;20043;-73
2022/10/27 08:10:43;;;;;;;11.00;2.20;;;11.80;99.90;;;11.43;100.00;97992.19;4966448;28;20063;-73
2022/10/27 08:13:11;;;;;;;8.70;2.63;;;12.00;99.90;;;11.52;100.00;97990.06;4982437;28;20047;-73
2022/10/27 08:15:40;;;;;;;6.25;2.30;;;12.10;99.90;;;11.65;100.00;97989.56;4970780;28;20472;-73
2022/10/27 08:18:09;;;;;;;8.30;2.38;;;12.20;99.90;;;11.77;100.00;97989.09;4964286;28;20074;-74
2022/10/27 08:20:43;;;;;;;7.05;2.60;;;12.40;99.90;;;11.87;100.00;97993.03;4966260;28;20054;-73
2022/10/27 08:23:13;;;;;;;8.23;5.10;;;12.50;99.90;;;11.91;100.00;97993.75;4967695;28;20141;-73
2022/10/27 08:25:41;;;;;;;12.15;4.38;;;12.60;99.90;;;12.03;100.00;97989.78;4984907;28;20047;-72
2022/10/27 08:28:13;;;;;;;7.72;2.90;;;12.70;99.90;;;12.24;100.00;97994.09;4983177;28;20046;-73
2022/10/27 08:30:41;;;;;;;6.38;3.33;;;12.90;99.90;;;12.31;100.00;97987.69;4965300;28;20125;-73
2022/10/27 08:33:21;;;;;;;7.75;3.90;;;13.00;99.90;;;12.50;100.00;97986.94;4967171;28;20109;-72
2022/10/27 08:35:49;;;;;;;9.60;3.47;;;13.10;99.90;;;12.63;100.00;97992.41;4970066;28;20054;-74
2022/10/27 08:38:17;;;;;;;6.95;2.17;;;13.30;99.90;;;12.74;100.00;97991.03;4965278;28;20090;-73
2022/10/27 08:40:50;;;;;;;4.30;2.80;;;13.40;99.90;;;12.86;100.00;97987.03;4971439;28;20054;-72
2022/10/27 08:43:38;;;;;;;8.50;2.75;;;13.50;99.90;;;13.01;100.00;97990.69;4973807;28;20046;-73
2022/10/27 08:46:19;;;;;;;6.85;2.53;;;13.60;99.90;;;13.10;100.00;97994.66;4966069;28;20153;-73
2022/10/27 08:48:48;;;;;;;6.05;2.47;;;13.70;99.90;;;13.16;100.00;97987.41;4977935;28;20051;-73
2022/10/27 08:51:19;;;;;;;5.00;2.33;;;13.80;99.90;;;13.27;100.00;97992.09;4963999;28;20050;-74
2022/10/27 08:53:52;;;;;;;7.18;2.20;;;13.90;99.90;;;13.37;100.00;97982.13;4968630;28;20121;-73
2022/10/27 08:56:22;;;;;;;3.80;2.13;;;14.00;99.90;;;13.47;100.00;97988.56;4968952;28;20051;-73
2022/10/27 08:58:49;;;;;;;9.55;2.53;;;14.10;99.90;;;13.57;100.00;97989.84;4967310;28;20058;-73
2022/10/27 09:01:38;;;;;;;10.70;2.20;;;14.20;99.90;;;13.72;100.00;97988.25;4963951;28;20508;-73
2022/10/27 09:04:29;;;;;;;6.65;2.38;;;14.30;99.90;;;13.76;100.00;97978.50;4968480;28;20093;-72
2022/10/27 09:07:18;;;;;;;5.90;3.60;;;14.40;99.90;;;13.84;100.00;97978.97;4974038;28;20042;-72
2022/10/27 09:09:58;;;;;;;8.63;3.72;;;14.50;99.90;;;13.95;100.00;97976.66;4971066;28;20065;-73
2022/10/27 09:13:06;;;;;;;10.65;4.00;;;14.60;99.90;;;14.00;100.00;97963.38;4965870;28;20101;-73
2022/10/27 09:15:46;;;;;;;14.55;5.97;;;14.70;99.90;;;14.13;100.00;97966.22;4980495;28;20051;-73
2022/10/27 09:18:24;;;;;;;10.07;5.25;;;14.80;99.90;;;14.27;100.00;97955.09;4967055;28;20088;-72
2022/10/27 09:20:57;;;;;;;9.65;5.05;;;14.90;99.90;;;14.39;100.00;97955.31;4965190;28;20473;-74
2022/10/27 09:23:35;;;;;;;11.73;5.07;;;15.00;99.90;;;14.63;100.00;97955.81;4968027;28;20058;-73
2022/10/27 09:26:04;;;;;;;7.38;4.20;;;15.10;99.90;;;14.92;100.00;97949.97;4966177;28;20051;-72
2022/10/27 09:28:39;;;;;;;10.25;4.03;;;15.40;99.90;;;15.43;100.00;97955.84;4973350;28;20493;-72
2022/10/27 09:31:14;;;;;;;8.70;3.13;;;15.70;99.90;;;15.75;100.00;97953.19;4967310;28;20424;-73
2022/10/27 09:34:23;;;;;;;10.55;2.88;;;16.00;99.90;;;16.07;100.00;97951.31;4982414;28;21750;-73
2022/10/27 09:36:51;;;;;;;8.88;2.80;;;16.30;99.90;;;16.37;100.00;97964.38;4967585;28;20050;-73
2022/10/27 09:39:20;;;;;;;10.18;2.60;;;16.60;99.90;;;16.35;100.00;97976.72;4978292;28;20456;-72
2022/10/27 09:41:48;;;;;;;9.40;2.67;;;16.90;99.90;;;16.44;100.00;97986.63;4976308;28;20053;-73
2022/10/27 09:44:23;;;;;;;9.63;2.42;;;16.90;99.90;;;16.31;100.00;97991.78;4965728;28;20047;-74
2022/10/27 09:46:55;;;;;;;12.88;2.00;;;16.90;99.90;;;16.40;100.00;98007.88;4980615;28;20058;-73
2022/10/27 09:49:38;;;;;;;11.02;2.33;;;16.90;99.90;;;16.38;100.00;98013.22;4978425;28;20051;-73
2022/10/27 09:52:14;;;;;;;6.20;1.88;;;16.90;99.90;;;16.28;100.00;98009.44;4978210;28;20051;-73
2022/10/27 09:54:51;;;;;;;5.97;2.13;;;16.90;99.90;;;16.23;100.00;98011.50;4965616;28;20054;-73
2022/10/27 09:57:26;;;;;;;10.75;2.28;;;16.90;99.90;;;16.26;100.00;98008.69;4963817;28;20051;-73
2022/10/27 10:00:22;;;;;;;10.82;2.92;;;16.90;99.90;;;16.41;100.00;98007.78;4959129;28;20062;-75
2022/10/27 10:03:04;;;;;;;6.68;1.83;;;17.00;99.90;;;16.72;100.00;98009.44;4964592;28;20054;-75
2022/10/27 10:05:35;;;;;;;5.32;1.52;;;17.20;99.90;;;16.77;100.00;98014.38;4961018;28;20056;-74
2022/10/27 10:08:26;;;;;;;9.20;1.70;;;17.30;99.90;;;17.14;100.00;98028.72;4976294;28;20058;-73
2022/10/27 10:10:57;;;;;;;9.35;1.98;;;17.50;99.90;;;17.06;100.00;98027.50;4963949;28;20062;-73
2022/10/27 10:13:27;;;;;;;6.50;1.58;;;17.60;99.90;;;17.43;100.00;98036.56;4962512;28;20099;-74
2022/10/27 10:16:08;;;;;;;9.85;1.98;;;17.80;99.90;;;17.48;100.00;98049.41;4961331;28;20059;-74
2022/10/27 10:18:42;;;;;;;10.25;2.30;;;18.00;99.90;;;17.63;100.00;98055.44;4981934;28;20057;-73
2022/10/27 10:21:12;;;;;;;7.88;1.95;;;18.10;99.90;;;17.70;100.00;98062.00;4959840;28;20050;-74
2022/10/27 10:23:48;;;;;;;11.50;1.63;;;18.30;99.90;;;17.62;100.00;98067.72;4963486;28;20168;-74
2022/10/27 10:26:23;;;;;;;7.30;1.85;;;18.30;99.90;;;17.71;100.00;98077.66;4960338;28;20050;-75
2022/10/27 10:28:54;;;;;;;8.95;1.98;;;18.30;99.90;;;17.77;100.00;98082.50;4979037;28;20074;-73
2022/10/27 10:31:28;;;;;;;5.10;1.30;;;18.40;99.90;;;17.94;100.00;98080.63;4966712;28;20800;-73
2022/10/27 10:34:04;;;;;;;8.27;2.17;;;18.50;99.90;;;17.95;100.00;98080.53;4963904;28;20096;-73
2022/10/27 10:36:39;;;;;;;8.25;1.85;;;18.60;99.90;;;17.97;100.00;98075.16;4968526;28;20043;-74
2022/10/27 10:39:28;;;;;;;11.18;1.88;;;18.60;99.90;;;17.90;100.00;98069.50;4964164;28;20054;-73
2022/10/27 10:42:15;;;;;;;7.38;1.85;;;18.60;99.90;;;17.89;100.00;98072.19;4978235;28;20709;-73
2022/10/27 10:44:42;;;;;;;6.28;2.03;;;18.50;99.90;;;17.94;100.00;98080.63;4962324;28;20113;-74